createdAt,value
2019-03-21T00:01:25.385Z,6.50
2019-03-21T00:03:55.499Z,4.00
2019-03-21T00:06:22.109Z,4.87
2019-03-21T00:08:49.114Z,4.20
2019-03-21T00:11:53.157Z,5.78
2019-03-21T00:14:23.413Z,7.08
2019-03-21T00:16:50.060Z,5.70
2019-03-21T00:19:16.797Z,5.25
2019-03-21T00:21:43.504Z,5.78
2019-03-21T00:24:10.203Z,5.83
2019-03-21T00:26:36.917Z,5.28
2019-03-21T00:29:03.676Z,5.90
2019-03-21T00:31:30.467Z,5.95
2019-03-21T00:33:57.206Z,6.03
2019-03-21T00:36:23.950Z,6.72
2019-03-21T00:38:50.630Z,7.95
2019-03-21T00:41:17.438Z,6.80
2019-03-21T00:43:44.101Z,7.25
2019-03-21T00:46:10.770Z,6.25
2019-03-21T00:48:37.499Z,6.83
2019-03-21T00:51:04.143Z,7.60
2019-03-21T00:53:30.810Z,7.17
2019-03-21T00:55:58.287Z,7.00
2019-03-21T00:58:24.959Z,7.00
2019-03-21T01:00:57.920Z,6.45
2019-03-21T01:03:24.728Z,7.58
2019-03-21T01:05:51.430Z,7.15
2019-03-21T01:08:18.143Z,7.65
2019-03-21T01:10:44.863Z,7.90
2019-03-21T01:13:11.486Z,7.22
2019-03-21T01:15:38.158Z,8.50
2019-03-21T01:18:04.858Z,9.00
2019-03-21T01:20:31.585Z,8.55
2019-03-21T01:22:58.291Z,10.60
2019-03-21T01:25:43.416Z,10.60
2019-03-21T01:28:10.047Z,10.00
2019-03-21T01:30:36.678Z,10.68
2019-03-21T01:33:04.379Z,10.18
2019-03-21T01:35:31.007Z,10.90
2019-03-21T01:37:57.694Z,12.30
2019-03-21T01:40:40.206Z,11.20
2019-03-21T01:43:06.908Z,11.85
2019-03-21T01:45:34.618Z,11.65
2019-03-21T01:48:01.359Z,11.57
2019-03-21T01:50:38.612Z,11.12
2019-03-21T01:53:05.312Z,11.70
2019-03-21T01:55:31.958Z,11.63
2019-03-21T01:57:58.648Z,12.13
2019-03-21T02:00:46.744Z,12.05
2019-03-21T02:03:13.390Z,12.00
2019-03-21T02:05:40.118Z,11.85
2019-03-21T02:08:06.827Z,12.78
2019-03-21T02:10:34.062Z,11.45
2019-03-21T02:13:00.726Z,11.43
2019-03-21T02:15:27.462Z,12.05
2019-03-21T02:17:54.093Z,11.83
2019-03-21T02:20:21.698Z,10.50
2019-03-21T02:22:48.421Z,12.40
2019-03-21T02:25:32.569Z,10.80
2019-03-21T02:27:59.233Z,10.53
2019-03-21T02:30:32.191Z,10.75
2019-03-21T02:33:11.668Z,11.55
2019-03-21T02:35:38.458Z,10.32
2019-03-21T02:38:05.237Z,12.00
2019-03-21T02:40:31.842Z,11.33
2019-03-21T02:42:58.543Z,11.15
2019-03-21T02:45:25.334Z,11.75
2019-03-21T02:47:52.071Z,11.03
2019-03-21T02:50:30.565Z,11.38
2019-03-21T02:52:57.315Z,10.95
2019-03-21T02:55:24.109Z,11.22
2019-03-21T02:57:50.783Z,11.05
2019-03-21T03:00:23.498Z,11.35
2019-03-21T03:02:52.003Z,11.20
2019-03-21T03:05:21.337Z,10.72
2019-03-21T03:07:48.070Z,10.78
2019-03-21T03:10:18.281Z,11.08
2019-03-21T03:12:44.944Z,10.23
2019-03-21T03:15:22.470Z,11.03
2019-03-21T03:20:13.448Z,10.50
2019-03-21T03:22:40.158Z,11.28
2019-03-21T03:25:09.795Z,10.15
2019-03-21T03:27:37.436Z,11.25
2019-03-21T03:30:07.819Z,11.30
2019-03-21T03:32:34.523Z,10.98
2019-03-21T03:35:01.368Z,11.18
2019-03-21T03:37:29.051Z,11.33
2019-03-21T03:39:55.736Z,11.83
2019-03-21T03:42:22.538Z,12.03
2019-03-21T03:44:49.243Z,11.00
2019-03-21T03:47:15.934Z,10.98
2019-03-21T03:49:42.709Z,11.20
2019-03-21T03:52:09.495Z,10.08
2019-03-21T03:54:36.096Z,11.10
2019-03-21T03:57:02.784Z,9.68
2019-03-21T03:59:29.466Z,10.05
2019-03-21T04:01:56.203Z,10.28
2019-03-21T04:04:22.990Z,9.15
2019-03-21T04:06:50.710Z,9.65
2019-03-21T04:09:17.344Z,9.00
2019-03-21T04:11:44.012Z,9.93
2019-03-21T04:14:10.728Z,9.18
2019-03-21T04:16:37.467Z,10.00
2019-03-21T04:19:04.094Z,9.78
2019-03-21T04:21:30.784Z,9.15
2019-03-21T04:23:59.762Z,9.98
2019-03-21T04:26:29.538Z,10.20
2019-03-21T04:28:56.223Z,9.43
2019-03-21T04:31:22.859Z,8.90
2019-03-21T04:33:52.490Z,9.58
2019-03-21T04:36:19.594Z,9.23
2019-03-21T04:38:46.300Z,8.70
2019-03-21T04:41:13.063Z,8.13
2019-03-21T04:43:39.759Z,8.40
2019-03-21T04:46:06.532Z,8.90
2019-03-21T04:48:33.238Z,8.53
2019-03-21T04:50:59.966Z,8.65
2019-03-21T04:53:26.589Z,8.73
2019-03-21T04:55:53.315Z,8.33
2019-03-21T04:58:20.162Z,7.92
2019-03-21T05:00:50.437Z,9.25
2019-03-21T05:03:22.110Z,10.80
2019-03-21T05:05:49.919Z,9.85
2019-03-21T05:08:17.528Z,9.78
2019-03-21T05:10:44.200Z,9.95
2019-03-21T05:13:10.870Z,10.63
2019-03-21T05:15:43.987Z,10.88
2019-03-21T05:18:14.332Z,10.85
2019-03-21T05:20:41.012Z,10.25
2019-03-21T05:23:07.782Z,11.60
2019-03-21T05:25:34.562Z,10.60
2019-03-21T05:28:01.317Z,9.83
2019-03-21T05:30:37.463Z,10.35
2019-03-21T05:33:04.150Z,9.90
2019-03-21T05:35:30.847Z,10.35
2019-03-21T05:37:57.589Z,9.08
2019-03-21T05:40:25.333Z,10.30
2019-03-21T05:43:01.898Z,9.73
2019-03-21T05:45:28.554Z,10.28
2019-03-21T05:47:55.193Z,10.70
2019-03-21T05:50:21.958Z,13.75
2019-03-21T05:52:48.582Z,10.63
2019-03-21T05:55:15.212Z,10.60
2019-03-21T05:57:42.990Z,10.20
2019-03-21T06:00:27.998Z,10.63
2019-03-21T06:02:54.661Z,11.50
2019-03-21T06:05:21.384Z,11.80
2019-03-21T06:07:51.598Z,13.05
2019-03-21T06:10:18.525Z,13.58
2019-03-21T06:12:45.548Z,14.25
2019-03-21T06:15:18.604Z,13.60
2019-03-21T06:17:48.875Z,13.13
2019-03-21T06:20:28.128Z,13.15
2019-03-21T06:22:58.551Z,15.93
2019-03-21T06:25:31.664Z,16.20
2019-03-21T06:27:58.374Z,14.93
2019-03-21T06:30:24.979Z,12.05
2019-03-21T06:32:51.688Z,11.28
2019-03-21T06:35:19.588Z,11.93
2019-03-21T06:37:46.317Z,9.50
2019-03-21T06:40:13.042Z,7.53
2019-03-21T06:42:39.837Z,8.63
2019-03-21T06:45:06.431Z,9.40
2019-03-21T06:47:33.133Z,8.93
2019-03-21T06:49:59.831Z,8.50
2019-03-21T06:52:26.562Z,7.75
2019-03-21T06:54:53.383Z,8.38
2019-03-21T06:57:20.136Z,7.75
2019-03-21T06:59:46.800Z,8.00
2019-03-21T07:02:13.461Z,8.03
2019-03-21T07:04:40.187Z,8.30
2019-03-21T07:07:08.402Z,7.87
2019-03-21T07:09:35.411Z,7.97
2019-03-21T07:12:02.126Z,8.33
2019-03-21T07:14:28.763Z,8.80
2019-03-21T07:17:00.280Z,8.25
2019-03-21T07:19:24.063Z,8.53
2019-03-21T07:21:50.699Z,8.30
2019-03-21T07:24:17.365Z,7.90
2019-03-21T07:26:44.079Z,8.70
2019-03-21T07:29:10.793Z,8.55
2019-03-21T07:31:37.540Z,7.65
2019-03-21T07:34:04.292Z,7.75
2019-03-21T07:36:31.138Z,7.65
2019-03-21T07:38:57.794Z,8.75
2019-03-21T07:41:24.603Z,8.40
2019-03-21T07:43:52.461Z,8.18
2019-03-21T07:46:19.195Z,8.18
2019-03-21T07:48:46.044Z,8.18
2019-03-21T07:51:12.673Z,7.50
2019-03-21T07:53:39.411Z,7.10
2019-03-21T07:56:06.255Z,7.10
2019-03-21T07:58:33.129Z,6.97
2019-03-21T08:01:00.152Z,7.78
2019-03-21T08:03:26.992Z,7.20
2019-03-21T08:05:53.748Z,7.75
2019-03-21T08:08:20.470Z,6.10
2019-03-21T08:10:47.204Z,6.33
2019-03-21T08:13:13.842Z,7.75
2019-03-21T08:15:40.578Z,7.10
2019-03-21T08:18:07.325Z,7.75
2019-03-21T08:20:34.058Z,7.53
2019-03-21T08:23:00.899Z,7.15
2019-03-21T08:25:27.640Z,7.83
2019-03-21T08:27:54.284Z,8.00
2019-03-21T08:30:33.811Z,6.72
2019-03-21T08:33:02.929Z,7.35
2019-03-21T08:35:28.999Z,6.62
2019-03-21T08:37:55.709Z,7.12
2019-03-21T08:40:22.437Z,7.10
2019-03-21T08:42:49.261Z,7.58
2019-03-21T08:45:16.093Z,6.95
2019-03-21T08:47:42.841Z,7.25
2019-03-21T08:50:10.801Z,6.95
2019-03-21T08:52:37.548Z,7.00
2019-03-21T08:55:05.748Z,7.78
2019-03-21T08:57:32.560Z,6.20
2019-03-21T08:59:59.307Z,5.85
2019-03-21T09:02:26.041Z,5.72
2019-03-21T09:04:52.774Z,5.22
2019-03-21T09:07:19.513Z,5.28
2019-03-21T09:09:46.158Z,5.42
2019-03-21T09:12:12.890Z,5.50
2019-03-21T09:14:39.636Z,5.30
2019-03-21T09:17:06.476Z,5.50
2019-03-21T09:19:33.217Z,5.25
2019-03-21T09:22:00.061Z,5.33
2019-03-21T09:24:26.792Z,5.42
2019-03-21T09:26:53.529Z,5.05
2019-03-21T09:29:20.281Z,4.40
2019-03-21T09:31:47.112Z,4.62
2019-03-21T09:34:13.850Z,4.58
2019-03-21T09:36:40.593Z,4.70
2019-03-21T09:39:07.302Z,4.67
2019-03-21T09:41:34.051Z,4.25
2019-03-21T09:44:00.867Z,4.42
2019-03-21T09:46:27.569Z,4.50
2019-03-21T09:48:54.203Z,3.98
2019-03-21T09:51:30.578Z,4.37
2019-03-21T09:53:49.389Z,3.98
2019-03-21T09:56:16.103Z,4.58
2019-03-21T09:58:42.835Z,3.98
2019-03-21T10:01:09.560Z,4.50
2019-03-21T10:03:36.196Z,4.60
2019-03-21T10:06:03.151Z,4.37
2019-03-21T10:08:29.817Z,4.78
2019-03-21T10:10:56.480Z,4.37
2019-03-21T10:13:23.163Z,4.50
2019-03-21T10:15:49.818Z,4.35
2019-03-21T10:18:16.476Z,4.75
2019-03-21T10:20:43.185Z,4.30
2019-03-21T10:23:10.900Z,4.53
2019-03-21T10:25:37.631Z,4.08
2019-03-21T10:28:04.582Z,4.47
2019-03-21T10:30:41.453Z,4.37
2019-03-21T10:33:12.185Z,4.40
2019-03-21T10:35:39.044Z,4.10
2019-03-21T10:38:06.586Z,4.22
2019-03-21T10:40:33.435Z,3.87
2019-03-21T10:43:00.278Z,4.15
2019-03-21T10:45:27.008Z,3.72
2019-03-21T10:47:53.754Z,4.35
2019-03-21T10:50:32.170Z,4.60
2019-03-21T10:52:59.004Z,4.20
2019-03-21T10:55:25.852Z,3.92
2019-03-21T10:57:52.687Z,4.25
2019-03-21T11:00:19.329Z,3.95
2019-03-21T11:02:46.062Z,4.03
2019-03-21T11:05:12.812Z,4.25
2019-03-21T11:07:40.463Z,4.65
2019-03-21T11:10:07.517Z,3.75
2019-03-21T11:12:34.360Z,4.20
2019-03-21T11:15:01.101Z,3.98
2019-03-21T11:17:27.840Z,4.30
2019-03-21T11:19:54.681Z,4.12
2019-03-21T11:22:21.320Z,4.10
2019-03-21T11:24:48.001Z,4.35
2019-03-21T11:27:15.827Z,3.98
2019-03-21T11:29:42.478Z,3.98
2019-03-21T11:32:09.117Z,4.15
2019-03-21T11:34:35.936Z,4.12
2019-03-21T11:37:02.680Z,3.90
2019-03-21T11:39:29.410Z,3.77
2019-03-21T11:41:56.264Z,4.28
2019-03-21T11:44:22.895Z,3.72
2019-03-21T11:46:49.636Z,4.37
2019-03-21T11:49:16.561Z,4.15
2019-03-21T11:51:43.420Z,4.30
2019-03-21T11:54:10.150Z,4.42
2019-03-21T11:56:36.900Z,4.53
2019-03-21T11:59:03.733Z,4.58
2019-03-21T12:01:30.472Z,4.15
2019-03-21T12:03:57.212Z,3.92
2019-03-21T12:06:23.848Z,3.85
2019-03-21T12:08:50.702Z,4.20
2019-03-21T12:11:17.532Z,3.87
2019-03-21T12:13:44.484Z,4.95
2019-03-21T12:16:11.322Z,4.08
2019-03-21T12:18:38.060Z,4.45
2019-03-21T12:21:04.712Z,4.10
2019-03-21T12:23:31.436Z,4.30
2019-03-21T12:25:58.183Z,3.90
2019-03-21T12:28:24.921Z,4.35
2019-03-21T12:30:51.661Z,3.72
2019-03-21T12:33:18.391Z,4.25
2019-03-21T12:35:45.042Z,4.00
2019-03-21T12:38:11.768Z,4.37
2019-03-21T12:40:38.506Z,4.08
2019-03-21T12:43:05.349Z,3.98
2019-03-21T12:45:32.094Z,3.90
2019-03-21T12:47:58.773Z,3.90
2019-03-21T12:50:25.575Z,4.00
2019-03-21T12:52:52.315Z,4.97
2019-03-21T12:55:19.046Z,4.22
2019-03-21T12:57:45.683Z,4.00
2019-03-21T13:00:13.446Z,4.22
2019-03-21T13:02:42.955Z,4.20
2019-03-21T13:05:24.549Z,4.28
2019-03-21T13:07:51.253Z,4.17
2019-03-21T13:10:18.023Z,3.95
2019-03-21T13:12:44.765Z,4.37
2019-03-21T13:15:11.497Z,5.35
2019-03-21T13:17:38.346Z,4.28
2019-03-21T13:20:06.121Z,4.10
2019-03-21T13:22:33.871Z,4.03
2019-03-21T13:25:00.605Z,4.45
2019-03-21T13:27:27.359Z,4.03
2019-03-21T13:29:54.079Z,4.22
2019-03-21T13:32:20.782Z,4.50
2019-03-21T13:34:47.459Z,4.90
2019-03-21T13:37:14.096Z,4.12
2019-03-21T13:39:40.838Z,4.67
2019-03-21T13:42:07.482Z,4.00
2019-03-21T13:44:34.120Z,4.10
2019-03-21T13:47:00.860Z,4.33
2019-03-21T13:49:27.591Z,4.25
2019-03-21T13:51:54.337Z,4.30
2019-03-21T13:54:21.172Z,4.95
2019-03-21T13:56:47.807Z,4.40
2019-03-21T13:59:14.554Z,3.87
2019-03-21T14:01:41.242Z,4.47
2019-03-21T14:04:07.959Z,4.42
2019-03-21T14:06:34.671Z,3.70
2019-03-21T14:09:01.552Z,3.80
2019-03-21T14:11:30.088Z,4.03
2019-03-21T14:13:56.792Z,4.20
2019-03-21T14:16:23.572Z,4.03
2019-03-21T14:18:50.313Z,4.00
2019-03-21T14:21:17.153Z,4.53
2019-03-21T14:23:43.950Z,4.10
2019-03-21T14:26:10.738Z,4.47
2019-03-21T14:28:37.472Z,4.40
2019-03-21T14:31:04.180Z,3.87
2019-03-21T14:33:30.844Z,4.17
2019-03-21T14:35:57.593Z,3.70
2019-03-21T14:38:26.329Z,4.45
2019-03-21T14:40:53.014Z,4.45
2019-03-21T14:43:19.746Z,4.30
2019-03-21T14:45:46.487Z,4.60
2019-03-21T14:48:13.131Z,4.60
2019-03-21T14:50:39.963Z,3.87
2019-03-21T14:53:06.925Z,4.10
2019-03-21T14:55:33.545Z,4.22
2019-03-21T14:58:00.284Z,4.15
2019-03-21T15:00:27.130Z,4.78
2019-03-21T15:02:53.964Z,4.85
2019-03-21T15:05:20.615Z,4.80
2019-03-21T15:07:47.347Z,4.15
2019-03-21T15:10:15.439Z,4.35
2019-03-21T15:12:42.268Z,5.15
2019-03-21T15:15:11.306Z,4.90
2019-03-21T15:17:38.101Z,5.17
2019-03-21T15:20:15.189Z,4.83
2019-03-21T15:22:42.223Z,4.42
2019-03-21T15:25:10.599Z,5.50
2019-03-21T15:27:37.246Z,4.40
2019-03-21T15:30:06.772Z,5.35
2019-03-21T15:32:33.581Z,4.97
2019-03-21T15:35:00.455Z,6.53
2019-03-21T15:37:27.272Z,5.33
2019-03-21T15:39:54.004Z,9.28
2019-03-21T15:42:20.655Z,4.80
2019-03-21T15:44:47.389Z,4.67
2019-03-21T15:47:14.092Z,4.85
2019-03-21T15:49:40.754Z,4.70
2019-03-21T15:52:07.411Z,4.95
2019-03-21T15:54:34.284Z,4.22
2019-03-21T15:57:01.064Z,5.08
2019-03-21T15:59:27.768Z,5.37
2019-03-21T16:01:54.564Z,4.30
2019-03-21T16:04:21.304Z,4.70
2019-03-21T16:06:47.990Z,4.75
2019-03-21T16:09:14.782Z,7.55
2019-03-21T16:11:41.580Z,5.00
2019-03-21T16:14:08.466Z,4.53
2019-03-21T16:16:35.313Z,4.37
2019-03-21T16:19:02.047Z,5.65
2019-03-21T16:21:28.676Z,4.60
2019-03-21T16:24:04.603Z,5.58
2019-03-21T16:26:24.111Z,5.05
2019-03-21T16:28:50.882Z,6.30
2019-03-21T16:31:17.683Z,6.50
2019-03-21T16:33:45.449Z,6.03
2019-03-21T16:36:12.086Z,6.25
2019-03-21T16:38:38.823Z,6.45
2019-03-21T16:41:05.573Z,5.45
2019-03-21T16:43:32.302Z,5.28
2019-03-21T16:45:59.042Z,6.83
2019-03-21T16:48:25.887Z,6.50
2019-03-21T16:50:52.527Z,6.85
2019-03-21T16:53:19.472Z,7.62
2019-03-21T16:55:46.314Z,7.55
2019-03-21T16:58:13.046Z,7.40
2019-03-21T17:00:39.790Z,5.97
2019-03-21T17:03:06.533Z,5.67
2019-03-21T17:05:33.264Z,6.47
2019-03-21T17:08:10.625Z,8.95
2019-03-21T17:10:30.574Z,9.58
2019-03-21T17:12:57.196Z,8.80
2019-03-21T17:15:24.043Z,9.40
2019-03-21T17:17:50.767Z,13.15
2019-03-21T17:20:17.415Z,17.70
2019-03-21T17:22:44.137Z,13.03
2019-03-21T17:25:11.293Z,12.45
2019-03-21T17:27:38.249Z,11.88
2019-03-21T17:30:08.545Z,11.53
2019-03-21T17:32:35.329Z,10.13
2019-03-21T17:35:02.335Z,8.75
2019-03-21T17:37:29.076Z,8.45
2019-03-21T17:39:55.811Z,8.10
2019-03-21T17:42:22.454Z,8.30
2019-03-21T17:44:49.296Z,8.43
2019-03-21T17:47:16.034Z,6.92
2019-03-21T17:49:42.875Z,6.80
2019-03-21T17:52:09.811Z,7.35
2019-03-21T17:54:41.313Z,8.10
2019-03-21T17:57:05.249Z,7.97
2019-03-21T17:59:31.976Z,7.78
2019-03-21T18:01:59.235Z,9.83
2019-03-21T18:04:26.377Z,8.68
2019-03-21T18:06:53.026Z,8.13
2019-03-21T18:09:19.690Z,8.50
2019-03-21T18:11:46.487Z,7.83
2019-03-21T18:14:13.231Z,7.20
2019-03-21T18:16:40.080Z,7.92
2019-03-21T18:19:06.812Z,8.70
2019-03-21T18:21:33.596Z,8.20
2019-03-21T18:24:00.238Z,10.45
2019-03-21T18:26:27.102Z,9.38
2019-03-21T18:28:53.735Z,10.70
2019-03-21T18:31:20.415Z,10.58
2019-03-21T18:33:47.154Z,11.10
2019-03-21T18:36:13.954Z,11.03
2019-03-21T18:38:40.699Z,11.10
2019-03-21T18:41:07.939Z,22.50
2019-03-21T18:43:34.720Z,26.23
2019-03-21T18:46:01.673Z,21.27
2019-03-21T18:48:28.513Z,27.55
2019-03-21T18:50:55.345Z,23.00
2019-03-21T18:53:22.709Z,16.87
2019-03-21T18:55:49.447Z,16.50
2019-03-21T18:58:16.184Z,15.78
2019-03-21T19:00:42.926Z,15.40
2019-03-21T19:03:09.694Z,15.43
2019-03-21T19:05:36.503Z,15.53
2019-03-21T19:08:03.241Z,17.35
2019-03-21T19:10:30.006Z,16.52
2019-03-21T19:12:56.828Z,15.45
2019-03-21T19:15:23.670Z,15.00
2019-03-21T19:17:50.438Z,14.03
2019-03-21T19:20:17.972Z,13.48
2019-03-21T19:22:45.007Z,13.43
2019-03-21T19:25:18.423Z,12.10
2019-03-21T19:27:41.016Z,12.35
2019-03-21T19:30:11.063Z,12.45
2019-03-21T19:32:37.805Z,12.03
2019-03-21T19:35:04.803Z,12.03
2019-03-21T19:37:31.594Z,12.00
2019-03-21T19:39:58.337Z,11.60
2019-03-21T19:42:25.028Z,12.23
2019-03-21T19:44:51.672Z,12.33
2019-03-21T19:47:24.290Z,12.58
2019-03-21T19:49:47.025Z,11.57
2019-03-21T19:52:14.796Z,12.10
2019-03-21T19:54:41.528Z,13.05
2019-03-21T19:57:08.237Z,11.70
2019-03-21T19:59:46.975Z,13.18
2019-03-21T20:02:13.648Z,13.18
2019-03-21T20:04:40.364Z,14.63
2019-03-21T20:07:07.111Z,14.23
2019-03-21T20:09:33.767Z,14.47
2019-03-21T20:12:00.793Z,13.90
2019-03-21T20:14:27.398Z,14.15
2019-03-21T20:16:54.110Z,13.78
2019-03-21T20:19:20.783Z,16.00
2019-03-21T20:21:48.361Z,15.32
2019-03-21T20:24:15.182Z,15.60
2019-03-21T20:26:41.856Z,16.48
2019-03-21T20:29:08.755Z,17.55
2019-03-21T20:31:35.422Z,18.55
2019-03-21T20:34:02.067Z,17.25
2019-03-21T20:36:28.851Z,17.67
2019-03-21T20:38:55.626Z,19.07
2019-03-21T20:41:22.261Z,29.05
2019-03-21T20:43:49.889Z,21.27
2019-03-21T20:46:16.540Z,21.48
2019-03-21T20:48:42.790Z,21.15
2019-03-21T20:51:09.510Z,21.10
2019-03-21T20:53:37.121Z,21.02
2019-03-21T20:56:03.840Z,22.80
2019-03-21T20:58:30.602Z,24.25
2019-03-21T21:00:57.478Z,22.82
2019-03-21T21:03:24.270Z,24.57
2019-03-21T21:05:51.071Z,26.33
2019-03-21T21:08:17.802Z,25.85
2019-03-21T21:10:44.540Z,26.02
2019-03-21T21:13:11.375Z,25.95
2019-03-21T21:15:38.145Z,27.70
2019-03-21T21:18:04.782Z,25.72
2019-03-21T21:20:31.487Z,26.12
2019-03-21T21:22:58.172Z,28.57
2019-03-21T21:25:24.917Z,28.73
2019-03-21T21:27:51.660Z,29.45
2019-03-21T21:30:19.386Z,29.40
2019-03-21T21:32:46.211Z,30.43
2019-03-21T21:35:12.911Z,28.05
2019-03-21T21:37:39.582Z,29.48
2019-03-21T21:40:08.152Z,30.68
2019-03-21T21:42:34.966Z,30.45
2019-03-21T21:45:01.678Z,31.52
2019-03-21T21:47:29.359Z,30.88
2019-03-21T21:49:56.013Z,36.23
2019-03-21T21:52:22.727Z,33.23
2019-03-21T21:54:49.396Z,37.42
2019-03-21T21:57:17.065Z,39.27
2019-03-21T21:59:43.796Z,37.50
2019-03-21T22:02:10.643Z,37.13
2019-03-21T22:04:37.415Z,36.20
2019-03-21T22:07:04.196Z,34.45
2019-03-21T22:09:30.833Z,34.85
2019-03-21T22:11:57.536Z,34.45
2019-03-21T22:14:24.207Z,33.45
2019-03-21T22:16:50.904Z,33.00
2019-03-21T22:19:17.633Z,33.00
2019-03-21T22:21:44.330Z,30.10
2019-03-21T22:24:11.000Z,28.70
2019-03-21T22:26:37.675Z,29.12
2019-03-21T22:29:04.410Z,27.55
2019-03-21T22:31:31.053Z,26.90
2019-03-21T22:33:57.768Z,25.95
2019-03-21T22:36:24.477Z,27.98
2019-03-21T22:38:51.224Z,26.40
2019-03-21T22:41:18.999Z,27.55
2019-03-21T22:43:45.856Z,28.40
2019-03-21T22:46:12.459Z,27.87
2019-03-21T22:48:39.125Z,28.27
2019-03-21T22:51:05.886Z,27.07
2019-03-21T22:53:32.563Z,25.62
2019-03-21T22:55:59.208Z,25.97
2019-03-21T22:58:31.713Z,24.67
2019-03-21T23:00:54.857Z,23.07
2019-03-21T23:03:22.688Z,20.43
2019-03-21T23:05:49.431Z,19.70
2019-03-21T23:08:16.034Z,19.95
2019-03-21T23:10:45.027Z,19.60
2019-03-21T23:13:11.327Z,20.20
2019-03-21T23:15:38.070Z,19.57
2019-03-21T23:18:04.802Z,21.17
2019-03-21T23:20:31.552Z,24.43
2019-03-21T23:22:58.238Z,21.80
2019-03-21T23:25:24.906Z,24.25
2019-03-21T23:27:51.655Z,24.50
2019-03-21T23:30:18.271Z,21.65
2019-03-21T23:32:45.179Z,21.85
2019-03-21T23:35:11.899Z,22.00
2019-03-21T23:37:38.540Z,22.87
2019-03-21T23:40:07.529Z,22.48
2019-03-21T23:42:34.275Z,21.70
2019-03-21T23:45:00.914Z,22.10
2019-03-21T23:47:27.614Z,20.60
2019-03-21T23:49:54.337Z,21.65
2019-03-21T23:52:21.001Z,22.62
2019-03-21T23:54:47.711Z,21.42
2019-03-21T23:57:14.431Z,21.65
2019-03-21T23:59:41.175Z,20.80
